Time;durP1;ratioP1;P1;durP2;ratioP2;P2;SDS_P1;SDS_P2;PMS_P1;PMS_P2;Temp;Humidity;BMP_temperature;BMP_pressure;BME280_temperature;BME280_humidity;BME280_pressure;Samples;Min_cycle;Max_cycle;Signal;HPM_P1;HPM_P2
2021/11/05 00:01:45;;;;;;;90.90;40.10;;;9.30;99.90;;;7.23;100.00;100344.13;5000003;28;20041;-84
2021/11/05 00:04:13;;;;;;;101.63;41.83;;;9.30;99.90;;;7.24;100.00;100348.56;5000354;28;20081;-83
2021/11/05 00:06:41;;;;;;;87.38;41.28;;;9.30;99.90;;;7.29;100.00;100362.44;5000005;28;20136;-84
2021/11/05 00:09:09;;;;;;;81.90;39.58;;;9.30;99.90;;;7.33;100.00;100357.50;5005897;28;20050;-84
2021/11/05 00:11:36;;;;;;;109.75;44.42;;;9.40;99.90;;;7.33;100.00;100363.78;5000021;28;20048;-83
2021/11/05 00:14:03;;;;;;;111.40;44.95;;;9.40;99.90;;;7.31;100.00;100365.81;5000718;28;20081;-83
2021/11/05 00:16:30;;;;;;;101.15;44.92;;;9.40;99.90;;;7.34;100.00;100367.34;4999552;28;20053;-83
2021/11/05 00:18:58;;;;;;;111.13;44.58;;;9.40;99.90;;;7.35;100.00;100374.44;4999498;28;20041;-83
2021/11/05 00:21:25;;;;;;;120.60;46.28;;;9.40;99.90;;;7.38;100.00;100372.25;4999216;28;20042;-83
2021/11/05 00:23:54;;;;;;;128.45;47.67;;;9.50;99.90;;;7.40;100.00;100378.34;5000550;28;20057;-83
2021/11/05 00:26:21;;;;;;;155.77;49.53;;;9.50;99.90;;;7.40;100.00;100375.63;4999446;28;20097;-84
2021/11/05 00:28:48;;;;;;;148.77;50.97;;;9.60;99.90;;;7.40;100.00;100386.44;4999430;28;20414;-83
2021/11/05 00:31:16;;;;;;;119.93;47.10;;;9.60;99.90;;;7.46;100.00;100394.94;4997755;28;20168;-84
2021/11/05 00:33:43;;;;;;;119.47;47.03;;;9.50;99.90;;;7.48;100.00;100391.03;4999896;28;20549;-83
2021/11/05 00:36:13;;;;;;;136.30;48.78;;;9.60;99.90;;;7.48;100.00;100403.72;4999515;28;20042;-83
2021/11/05 00:38:41;;;;;;;128.98;47.30;;;9.60;99.90;;;7.49;100.00;100402.72;4999545;28;20042;-83
2021/11/05 00:41:11;;;;;;;136.82;49.90;;;9.60;99.90;;;7.47;100.00;100407.47;4999406;28;20046;-84
2021/11/05 00:43:39;;;;;;;124.90;47.25;;;9.70;99.90;;;7.48;100.00;100409.16;4999159;28;20043;-83
2021/11/05 00:46:06;;;;;;;150.20;50.50;;;9.60;99.90;;;7.49;100.00;100410.84;5021402;28;20058;-83
2021/11/05 00:48:34;;;;;;;132.68;48.40;;;9.70;99.90;;;7.42;100.00;100403.41;4998595;28;20081;-83
2021/11/05 00:51:01;;;;;;;146.52;50.80;;;9.60;99.90;;;7.41;100.00;100417.09;4999006;28;20056;-84
2021/11/05 00:53:28;;;;;;;131.30;49.05;;;9.60;99.90;;;7.46;100.00;100416.59;5001861;28;20062;-83
2021/11/05 00:55:56;;;;;;;163.27;51.63;;;9.60;99.90;;;7.48;100.00;100425.38;4999207;28;20833;-83
2021/11/05 00:58:24;;;;;;;139.07;49.50;;;9.60;99.90;;;7.46;100.00;100427.41;5005806;28;20046;-84
2021/11/05 01:00:52;;;;;;;160.45;52.30;;;9.70;99.90;;;7.49;100.00;100427.09;4997338;28;20137;-83
2021/11/05 01:03:19;;;;;;;139.43;50.42;;;9.70;99.90;;;7.46;100.00;100430.13;4999084;28;20060;-83
2021/11/05 01:05:46;;;;;;;152.48;49.90;;;9.70;99.90;;;7.41;100.00;100439.59;5005986;28;20050;-83
2021/11/05 01:08:14;;;;;;;133.77;48.08;;;9.70;99.90;;;7.43;100.00;100434.88;4997213;28;20054;-83
2021/11/05 01:10:41;;;;;;;141.45;50.17;;;9.60;99.90;;;7.46;100.00;100438.25;4999461;28;20042;-83
2021/11/05 01:13:09;;;;;;;136.55;48.63;;;9.70;99.90;;;7.42;100.00;100441.31;4998407;28;20124;-84
2021/11/05 01:15:38;;;;;;;141.30;49.22;;;9.70;99.90;;;7.44;100.00;100447.41;4999082;28;20074;-83
2021/11/05 01:18:05;;;;;;;139.05;46.95;;;9.70;99.90;;;7.41;100.00;100446.88;4998257;28;20080;-83
2021/11/05 01:20:32;;;;;;;127.22;47.35;;;9.70;99.90;;;7.44;100.00;100447.41;4998696;28;20038;-83
2021/11/05 01:23:00;;;;;;;127.82;47.83;;;9.80;99.90;;;7.44;100.00;100460.06;5001373;28;20132;-83
2021/11/05 01:25:27;;;;;;;140.25;46.72;;;9.70;99.90;;;7.45;100.00;100459.06;5021879;28;20422;-84
2021/11/05 01:27:54;;;;;;;121.65;45.75;;;9.70;99.90;;;7.48;100.00;100458.72;4997970;28;20129;-84
2021/11/05 01:30:22;;;;;;;120.05;45.47;;;9.60;99.90;;;7.53;100.00;100460.94;4997280;28;20052;-83
2021/11/05 01:32:52;;;;;;;121.50;46.10;;;9.70;99.90;;;7.54;100.00;100465.34;4998580;28;20049;-83
2021/11/05 01:35:19;;;;;;;129.70;46.38;;;9.70;99.90;;;7.53;100.00;100467.22;4998217;28;20054;-83
2021/11/05 01:37:47;;;;;;;128.23;43.92;;;9.70;99.90;;;7.49;100.00;100470.44;4997689;28;20544;-83
2021/11/05 01:40:17;;;;;;;121.53;44.50;;;9.70;99.90;;;7.48;100.00;100472.25;5004998;28;20145;-83
2021/11/05 01:42:44;;;;;;;136.10;44.05;;;9.70;99.90;;;7.51;100.00;100468.41;4998855;28;20125;-83
2021/11/05 01:45:13;;;;;;;133.40;44.65;;;9.70;99.90;;;7.52;100.00;100464.66;4998292;28;20054;-84
2021/11/05 01:47:41;;;;;;;121.50;43.40;;;9.70;99.90;;;7.52;100.00;100475.50;4998035;28;20046;-83
2021/11/05 01:50:11;;;;;;;119.65;42.17;;;9.70;99.90;;;7.51;100.00;100477.34;4998911;28;20108;-84
2021/11/05 01:52:40;;;;;;;117.63;41.00;;;9.70;99.90;;;7.51;100.00;100482.78;4997203;28;20056;-84
2021/11/05 01:55:08;;;;;;;110.38;39.67;;;9.70;99.90;;;7.44;100.00;100485.31;4999866;28;20277;-83
2021/11/05 01:57:36;;;;;;;97.53;37.63;;;9.70;99.90;;;7.38;100.00;100485.94;4997655;28;20050;-83
2021/11/05 02:00:11;;;;;;;95.80;37.42;;;9.70;99.90;;;7.42;100.00;100481.94;5020392;28;20422;-83
2021/11/05 02:02:42;;;;;;;96.93;37.30;;;9.70;99.90;;;7.44;100.00;100485.31;4997966;28;20046;-83
2021/11/05 02:05:11;;;;;;;97.90;38.08;;;9.70;99.90;;;7.48;100.00;100493.94;4997759;28;20053;-84
2021/11/05 02:07:39;;;;;;;98.32;37.67;;;9.70;99.90;;;7.43;100.00;100491.72;4996517;28;20038;-84
2021/11/05 02:10:08;;;;;;;102.07;37.95;;;9.70;99.90;;;7.48;100.00;100493.09;4999819;28;20092;-84
2021/11/05 02:12:36;;;;;;;105.32;37.53;;;9.70;99.90;;;7.50;100.00;100496.47;4998206;28;20860;-83
2021/11/05 02:15:07;;;;;;;103.20;39.55;;;9.70;99.90;;;7.52;100.00;100497.16;4996808;28;20100;-83
2021/11/05 02:17:35;;;;;;;113.15;39.10;;;9.70;99.90;;;7.47;100.00;100510.38;4996853;28;20074;-84
2021/11/05 02:20:08;;;;;;;103.47;40.25;;;9.70;99.90;;;7.44;100.00;100506.97;5001203;28;20042;-83
2021/11/05 02:22:37;;;;;;;109.53;40.05;;;9.60;99.90;;;7.48;100.00;100512.88;5001945;28;20748;-83
2021/11/05 02:25:05;;;;;;;96.75;38.92;;;9.60;99.90;;;7.46;100.00;100512.19;5003093;28;20113;-83
2021/11/05 02:27:33;;;;;;;104.07;37.45;;;9.70;99.90;;;7.49;100.00;100516.47;5002024;28;20046;-84
2021/11/05 02:30:01;;;;;;;103.70;37.85;;;9.60;99.90;;;7.48;100.00;100512.88;5002988;28;20112;-83
2021/11/05 02:32:28;;;;;;;102.95;37.17;;;9.70;99.90;;;7.47;100.00;100521.19;5002266;28;20053;-83
2021/11/05 02:34:56;;;;;;;101.30;38.35;;;9.70;99.90;;;7.44;100.00;100520.50;5001685;28;20576;-83
2021/11/05 02:37:27;;;;;;;99.63;38.60;;;9.70;99.90;;;7.47;100.00;100526.59;5001275;28;20411;-83
2021/11/05 02:39:56;;;;;;;110.97;41.85;;;9.60;99.90;;;7.49;100.00;100527.28;5002088;28;20045;-83
2021/11/05 02:42:24;;;;;;;114.75;39.72;;;9.70;99.90;;;7.51;100.00;100530.69;5000361;28;20510;-83
2021/11/05 02:44:51;;;;;;;104.53;39.85;;;9.70;99.90;;;7.50;100.00;100537.09;5001474;28;20129;-83
2021/11/05 02:47:24;;;;;;;109.10;38.90;;;9.70;99.90;;;7.50;100.00;100537.09;5001319;28;20121;-83
2021/11/05 02:49:53;;;;;;;118.63;40.80;;;9.70;99.90;;;7.50;100.00;100543.38;5000087;28;20502;-83
2021/11/05 02:52:22;;;;;;;111.68;38.70;;;9.70;99.90;;;7.50;100.00;100550.63;5001712;28;20121;-84
2021/11/05 02:54:49;;;;;;;106.85;38.00;;;9.70;99.90;;;7.52;100.00;100552.19;5000976;28;20088;-84
2021/11/05 02:57:18;;;;;;;117.03;40.55;;;9.70;99.90;;;7.50;100.00;100545.22;5001892;28;20180;-83
2021/11/05 02:59:46;;;;;;;111.72;39.35;;;9.70;99.90;;;7.46;100.00;100552.81;5000727;28;20500;-84
2021/11/05 03:02:13;;;;;;;125.43;39.85;;;9.70;99.90;;;7.42;100.00;100551.44;5001948;28;20128;-84
2021/11/05 03:04:41;;;;;;;108.53;39.13;;;9.70;99.90;;;7.42;100.00;100557.75;5001132;28;20107;-83
2021/11/05 03:07:10;;;;;;;117.47;39.40;;;9.70;99.90;;;7.48;100.00;100560.78;5001023;28;20132;-83
2021/11/05 03:09:41;;;;;;;114.30;39.90;;;9.70;99.90;;;7.48;100.00;100560.78;5000363;28;20127;-84
2021/11/05 03:12:11;;;;;;;115.38;41.28;;;9.70;99.90;;;7.48;100.00;100566.19;5001453;28;20489;-84
2021/11/05 03:14:41;;;;;;;122.40;40.90;;;9.70;99.90;;;7.47;100.00;100569.94;5000928;28;20046;-83
2021/11/05 03:17:09;;;;;;;131.35;40.90;;;9.70;99.90;;;7.51;100.00;100579.44;5001211;28;20074;-84
2021/11/05 03:19:37;;;;;;;119.03;42.80;;;9.70;99.90;;;7.50;100.00;100569.59;4999985;28;20054;-83
2021/11/05 03:22:05;;;;;;;138.60;44.08;;;9.70;99.90;;;7.54;100.00;100576.38;5000144;28;20073;-83
2021/11/05 03:24:33;;;;;;;137.75;43.58;;;9.70;99.90;;;7.50;100.00;100580.41;5016388;28;20056;-83
2021/11/05 03:27:00;;;;;;;138.60;42.88;;;9.70;99.90;;;7.50;100.00;100583.13;5002774;28;20119;-83
2021/11/05 03:29:27;;;;;;;118.57;42.45;;;9.70;99.90;;;7.53;100.00;100590.94;4999824;28;20149;-83
2021/11/05 03:31:56;;;;;;;124.10;41.20;;;9.90;99.90;;;7.49;100.00;100589.56;5000500;28;20037;-83
2021/11/05 03:34:23;;;;;;;115.90;41.22;;;9.70;99.90;;;7.50;100.00;100592.13;5000114;28;20132;-83
2021/11/05 03:36:51;;;;;;;120.40;41.05;;;9.70;99.90;;;7.53;100.00;100596.34;5000510;28;20050;-83
2021/11/05 03:39:18;;;;;;;120.70;41.20;;;9.70;99.90;;;7.51;100.00;100599.22;5000631;28;20301;-83
2021/11/05 03:41:45;;;;;;;131.93;41.65;;;9.70;99.90;;;7.49;100.00;100603.94;5001233;28;20144;-84
2021/11/05 03:44:13;;;;;;;125.18;40.13;;;9.70;99.90;;;7.48;100.00;100604.09;5000571;28;20149;-84
2021/11/05 03:46:40;;;;;;;105.57;38.70;;;9.70;99.90;;;7.46;100.00;100604.25;4998863;28;20482;-83
2021/11/05 03:49:10;;;;;;;122.55;39.83;;;9.70;99.90;;;7.46;100.00;100617.81;4999811;28;20580;-83
2021/11/05 03:51:38;;;;;;;112.63;39.63;;;9.80;99.90;;;7.45;100.00;100621.53;5001294;28;20053;-84
2021/11/05 03:54:06;;;;;;;121.57;38.03;;;9.70;99.90;;;7.42;100.00;100621.84;5000883;28;20413;-84
2021/11/05 03:56:34;;;;;;;108.63;37.53;;;9.70;99.90;;;7.46;100.00;100628.63;5001724;28;20050;-83
2021/11/05 03:59:03;;;;;;;111.07;36.33;;;9.70;99.90;;;7.49;100.00;100628.31;4998943;28;20054;-83
2021/11/05 04:01:30;;;;;;;110.50;36.90;;;9.70;99.90;;;7.52;100.00;100629.84;5005439;28;20069;-84
2021/11/05 04:03:58;;;;;;;117.78;37.10;;;9.70;99.90;;;7.46;100.00;100638.63;5000056;28;20041;-83
2021/11/05 04:06:27;;;;;;;113.88;37.13;;;9.70;99.90;;;7.43;100.00;100648.78;5022982;28;20056;-84
2021/11/05 04:08:54;;;;;;;114.90;37.15;;;9.70;99.90;;;7.46;100.00;100657.59;4999646;28;20053;-84
2021/11/05 04:11:22;;;;;;;120.18;37.65;;;9.70;99.90;;;7.41;100.00;100656.22;4999878;28;20446;-84
2021/11/05 04:13:50;;;;;;;112.20;37.47;;;9.70;99.90;;;7.40;100.00;100657.19;4999933;28;20414;-84
2021/11/05 04:16:17;;;;;;;123.82;38.85;;;9.70;99.90;;;7.41;100.00;100664.34;4998149;28;20058;-84
2021/11/05 04:18:44;;;;;;;116.47;38.15;;;9.60;99.90;;;7.35;100.00;100674.94;4999486;28;20451;-84
2021/11/05 04:21:12;;;;;;;119.30;38.13;;;9.70;99.90;;;7.31;100.00;100674.44;5000313;28;20061;-84
2021/11/05 04:23:41;;;;;;;113.30;37.80;;;9.70;99.90;;;7.35;100.00;100674.94;4999703;28;20124;-84
2021/11/05 04:26:09;;;;;;;121.45;37.15;;;9.60;99.90;;;7.38;100.00;100685.47;5000099;28;20130;-84
2021/11/05 04:28:37;;;;;;;113.63;36.13;;;9.60;99.90;;;7.33;100.00;100688.66;4998215;28;20128;-83
2021/11/05 04:31:05;;;;;;;97.63;34.78;;;9.60;99.90;;;7.31;100.00;100693.38;5020999;28;20041;-83
2021/11/05 04:33:32;;;;;;;101.45;35.22;;;9.60;99.90;;;7.32;100.00;100692.34;4997841;28;20526;-83
2021/11/05 04:36:00;;;;;;;95.97;34.30;;;9.60;99.90;;;7.37;100.00;100700.88;4999218;28;20048;-83
2021/11/05 04:38:28;;;;;;;98.85;34.25;;;9.60;99.90;;;7.39;100.00;100706.13;4998437;28;20081;-84
2021/11/05 04:40:58;;;;;;;106.78;35.33;;;9.60;99.90;;;7.30;100.00;100702.50;4999727;28;20034;-84
2021/11/05 04:43:25;;;;;;;95.18;33.08;;;9.60;99.90;;;7.31;100.00;100706.03;5000294;28;20069;-84
2021/11/05 04:45:53;;;;;;;109.22;35.67;;;9.60;99.90;;;7.32;100.00;100705.91;4997657;28;20088;-85
2021/11/05 04:48:20;;;;;;;96.43;34.60;;;9.60;99.90;;;7.35;100.00;100719.13;4998197;28;20046;-85
2021/11/05 04:50:48;;;;;;;92.68;33.35;;;9.60;99.90;;;7.37;100.00;100722.53;4999510;28;20129;-85
2021/11/05 04:53:15;;;;;;;108.07;35.90;;;9.60;99.90;;;7.29;100.00;100725.19;4998007;28;20080;-84
2021/11/05 04:55:42;;;;;;;98.57;34.28;;;9.60;99.90;;;7.32;100.00;100724.00;5021908;28;20137;-85
2021/11/05 04:58:11;;;;;;;116.70;37.05;;;9.60;99.90;;;7.31;100.00;100727.69;4998574;28;20124;-85
2021/11/05 05:00:39;;;;;;;95.00;33.33;;;9.60;99.90;;;7.23;100.00;100725.78;4998869;28;20132;-85
2021/11/05 05:03:07;;;;;;;87.80;31.63;;;9.50;99.90;;;7.30;100.00;100729.56;4999218;28;20053;-85
2021/11/05 05:05:35;;;;;;;99.05;33.92;;;9.60;99.90;;;7.29;100.00;100735.13;4998947;28;20038;-85
2021/11/05 05:08:02;;;;;;;90.25;32.92;;;9.60;99.90;;;7.29;100.00;100729.72;4998009;28;20124;-83
2021/11/05 05:10:30;;;;;;;98.00;33.35;;;9.50;99.90;;;7.25;100.00;100734.59;4998975;28;20070;-84
2021/11/05 05:12:57;;;;;;;100.15;33.85;;;9.60;99.90;;;7.23;100.00;100740.19;4998967;28;20046;-84
2021/11/05 05:15:26;;;;;;;92.40;32.70;;;9.50;99.90;;;7.22;100.00;100738.47;5000308;28;20050;-84
2021/11/05 05:17:53;;;;;;;83.05;31.25;;;9.50;99.90;;;7.20;100.00;100745.91;5012771;28;20593;-84
2021/11/05 05:20:21;;;;;;;88.55;31.77;;;9.50;99.90;;;7.24;100.00;100751.88;4998841;28;20066;-84
2021/11/05 05:22:49;;;;;;;92.50;31.83;;;9.50;99.90;;;7.16;100.00;100766.19;4998862;28;20103;-87
2021/11/05 05:25:18;;;;;;;95.35;31.50;;;9.50;99.90;;;7.11;100.00;100770.38;5002473;28;20117;-86
2021/11/05 05:27:48;;;;;;;86.57;30.33;;;9.40;99.90;;;7.13;100.00;100766.47;4999862;28;20045;-86
2021/11/05 05:30:17;;;;;;;91.60;30.08;;;9.40;99.90;;;7.12;100.00;100777.47;5012826;28;20046;-86
2021/11/05 05:32:48;;;;;;;94.63;31.75;;;9.40;99.90;;;7.19;100.00;100773.13;4998226;28;20125;-86
2021/11/05 05:35:21;;;;;;;96.13;31.48;;;9.40;99.90;;;7.18;100.00;100779.56;4998026;28;20042;-85
2021/11/05 05:37:51;;;;;;;102.57;32.00;;;9.50;99.90;;;7.21;100.00;100784.66;4997667;28;20045;-87
2021/11/05 05:40:18;;;;;;;87.50;31.05;;;9.40;99.90;;;7.22;100.00;100786.38;4998436;28;20046;-86
2021/11/05 05:42:45;;;;;;;83.53;29.33;;;9.40;99.90;;;7.21;100.00;100796.31;5019912;28;20137;-86
2021/11/05 05:45:13;;;;;;;86.15;29.23;;;9.50;99.90;;;7.18;100.00;100803.94;4999260;28;20057;-86
2021/11/05 05:47:41;;;;;;;84.93;29.92;;;9.40;99.90;;;7.22;100.00;100799.91;4997317;28;20046;-86
2021/11/05 05:50:13;;;;;;;83.32;29.30;;;9.40;99.90;;;7.19;100.00;100811.88;4998307;28;20044;-86
2021/11/05 05:52:40;;;;;;;;;;;9.50;99.90;;;7.22;100.00;100811.56;4997454;28;20104;-86
2021/11/05 05:55:09;;;;;;;66.30;25.50;;;9.40;99.90;;;7.20;100.00;100813.59;4998069;28;20002;-86
2021/11/05 05:57:37;;;;;;;76.93;28.25;;;9.50;99.90;;;7.20;100.00;100813.59;4996142;28;20040;-86
2021/11/05 06:00:06;;;;;;;76.18;28.88;;;9.40;99.90;;;7.17;100.00;100815.75;4997750;28;20060;-85
2021/11/05 06:02:33;;;;;;;80.90;28.50;;;9.40;99.90;;;7.13;100.00;100817.06;5012929;28;20149;-84
2021/11/05 06:05:01;;;;;;;76.25;27.70;;;9.40;99.90;;;7.18;100.00;100829.13;4998282;28;20081;-87
2021/11/05 06:07:29;;;;;;;79.10;29.58;;;9.40;99.90;;;7.16;100.00;100832.97;4997236;28;20046;-85
2021/11/05 06:09:57;;;;;;;78.22;29.88;;;9.40;99.90;;;7.15;100.00;100825.88;5021416;28;20089;-84
2021/11/05 06:12:24;;;;;;;74.30;29.77;;;9.40;99.90;;;7.11;100.00;100833.44;4998382;28;20041;-85
2021/11/05 06:14:52;;;;;;;87.45;30.88;;;9.50;99.90;;;7.10;100.00;100834.47;4999334;28;20042;-85
2021/11/05 06:17:19;;;;;;;80.65;30.23;;;9.40;99.90;;;7.10;100.00;100836.31;4998994;28;20108;-86
2021/11/05 06:19:58;;;;;;;78.82;29.08;;;9.40;99.90;;;7.02;100.00;100846.03;5025555;28;20580;-93
2021/11/05 06:22:30;;;;;;;78.93;28.98;;;9.40;99.90;;;7.02;100.00;100854.16;5001197;28;20053;-93
2021/11/05 06:25:03;;;;;;;84.80;29.65;;;9.40;99.90;;;7.05;100.00;100851.16;5023558;28;20045;-95
2021/11/05 06:27:43;;;;;;;75.10;27.00;;;9.40;99.90;;;7.08;100.00;100852.69;5033609;28;20112;-95
2021/11/05 06:30:27;;;;;;;80.97;27.67;;;9.40;99.90;;;7.09;100.00;100858.97;5003706;28;20042;-95
2021/11/05 06:40:53;;;;;;;89.55;30.70;;;9.40;99.90;;;7.07;100.00;100872.66;4935396;28;20655;-93
2021/11/05 06:43:23;;;;;;;97.65;30.20;;;9.40;99.90;;;7.00;100.00;100877.81;4986521;28;20542;-93
2021/11/05 06:45:52;;;;;;;103.53;33.45;;;9.30;99.90;;;6.98;100.00;100877.13;4998468;28;20054;-92
2021/11/05 06:48:22;;;;;;;102.68;34.08;;;9.30;99.90;;;6.99;100.00;100894.22;5018657;28;20046;-93
2021/11/05 06:50:56;;;;;;;94.63;33.10;;;9.30;99.90;;;7.04;100.00;100894.59;5014277;28;20487;-93
2021/11/05 06:53:24;;;;;;;105.35;35.53;;;9.30;99.90;;;7.07;100.00;100898.88;5009889;28;20517;-91
2021/11/05 06:55:53;;;;;;;118.88;35.75;;;9.30;99.90;;;7.08;100.00;100905.97;5016770;28;20569;-93
2021/11/05 06:58:44;;;;;;;116.47;37.05;;;9.30;99.90;;;7.12;100.00;100910.06;5000717;28;20050;-95
2021/11/05 07:01:41;;;;;;;136.07;38.88;;;9.30;99.90;;;7.12;100.00;100915.50;5025822;28;20057;-94
2021/11/05 07:04:10;;;;;;;127.28;38.38;;;9.30;99.90;;;7.16;100.00;100919.59;5000671;28;20045;-94
2021/11/05 07:06:44;;;;;;;137.80;38.55;;;9.30;99.90;;;7.14;100.00;100918.88;5004921;28;20050;-94
2021/11/05 07:09:22;;;;;;;124.78;40.25;;;9.40;99.90;;;7.10;100.00;100920.22;5025762;28;20045;-93
2021/11/05 07:11:49;;;;;;;143.50;40.67;;;9.40;99.90;;;7.09;100.00;100923.94;5003093;28;20049;-93
2021/11/05 07:14:17;;;;;;;125.03;39.35;;;9.30;99.90;;;7.13;100.00;100936.16;5004560;28;20046;-93
2021/11/05 07:16:46;;;;;;;123.60;38.60;;;9.30;99.90;;;7.16;100.00;100930.41;5002463;28;20050;-93
2021/11/05 07:19:29;;;;;;;;;;;;;;;;;;;;;
2021/11/05 07:22:31;;;;;;;127.13;36.83;;;9.40;99.90;;;7.22;100.00;100946.06;5002637;28;20522;-95
2021/11/05 07:24:58;;;;;;;;;;;9.40;99.90;;;7.24;100.00;100949.47;5007936;28;20046;-93
2021/11/05 07:27:26;;;;;;;96.75;34.22;;;9.40;99.90;;;7.24;100.00;100954.91;5005117;28;19928;-93
2021/11/05 07:30:09;;;;;;;;;;;;;;;;;;;;;
2021/11/05 07:32:55;;;;;;;98.38;34.67;;;9.40;99.90;;;7.38;100.00;100967.88;5013987;28;20038;-95
2021/11/05 07:35:52;;;;;;;91.28;31.65;;;9.40;99.90;;;7.39;100.00;100975.03;5023043;28;20042;-95
2021/11/05 07:42:13;;;;;;;;;;;;;;;;;;;;;
2021/11/05 07:45:00;;;;;;;85.05;28.98;;;9.50;99.90;;;7.34;100.00;100990.03;4997332;28;20060;-86
2021/11/05 07:47:27;;;;;;;80.45;28.75;;;9.50;99.90;;;7.33;100.00;100994.59;4999486;28;20107;-87
2021/11/05 07:49:54;;;;;;;85.85;29.85;;;9.50;99.90;;;7.39;100.00;100999.41;4998968;28;20429;-86
2021/11/05 07:52:23;;;;;;;95.88;30.33;;;9.50;99.90;;;7.42;100.00;100996.41;5006785;28;20594;-86
2021/11/05 07:54:51;;;;;;;81.15;28.50;;;9.60;99.90;;;7.41;100.00;100999.25;5000799;28;20084;-86
2021/11/05 07:57:18;;;;;;;87.57;29.67;;;9.50;99.90;;;7.45;100.00;101006.06;4999431;28;20141;-87
2021/11/05 07:59:46;;;;;;;86.78;29.40;;;9.50;99.90;;;7.46;100.00;101009.63;5000924;28;20041;-87
2021/11/05 08:02:14;;;;;;;82.45;29.33;;;9.60;99.90;;;7.41;100.00;101012.78;5002122;28;20088;-86
2021/11/05 08:04:41;;;;;;;87.47;29.67;;;9.60;99.90;;;7.43;100.00;101008.91;4999950;28;20046;-86
2021/11/05 08:07:08;;;;;;;81.80;28.98;;;9.60;99.90;;;7.49;100.00;101017.44;4998815;28;20121;-86
2021/11/05 08:09:40;;;;;;;79.28;28.05;;;9.60;99.90;;;7.51;100.00;101018.16;4999414;28;20138;-86
2021/11/05 08:12:11;;;;;;;83.53;31.52;;;9.60;99.90;;;7.56;100.00;101023.97;4999982;28;20025;-86
2021/11/05 08:14:39;;;;;;;89.70;30.43;;;9.60;99.90;;;7.55;100.00;101030.38;5031109;28;20747;-86
2021/11/05 08:17:06;;;;;;;92.05;30.67;;;9.70;99.90;;;7.53;100.00;101029.69;5013230;28;20639;-86
2021/11/05 08:19:34;;;;;;;87.10;29.65;;;9.70;99.90;;;7.51;100.00;101037.09;4997440;28;20125;-86
2021/11/05 08:22:01;;;;;;;90.32;31.08;;;9.70;99.90;;;7.54;100.00;101039.47;4998685;28;20054;-86
2021/11/05 08:24:28;;;;;;;81.70;30.02;;;9.70;99.90;;;7.59;100.00;101039.88;4999369;28;20166;-87
2021/11/05 08:26:58;;;;;;;79.90;29.25;;;9.70;99.90;;;7.61;100.00;101043.28;4998493;28;20077;-86
2021/11/05 08:29:25;;;;;;;73.30;27.23;;;9.70;99.90;;;7.62;100.00;101039.59;4998776;28;20107;-86
2021/11/05 08:31:53;;;;;;;87.20;29.65;;;9.70;99.90;;;7.63;100.00;101049.41;4999400;28;20048;-86
2021/11/05 08:34:21;;;;;;;89.55;31.10;;;9.80;99.90;;;7.64;100.00;101051.13;4998931;28;20423;-86
2021/11/05 08:36:48;;;;;;;82.15;29.80;;;9.80;99.90;;;7.70;100.00;101058.63;4999765;28;20046;-87
2021/11/05 08:39:15;;;;;;;78.32;29.88;;;9.70;99.90;;;7.72;100.00;101055.78;5000369;28;20475;-86
2021/11/05 08:41:43;;;;;;;76.80;29.83;;;9.80;99.90;;;7.75;100.00;101061.75;5000066;28;20054;-87
2021/11/05 08:44:11;;;;;;;82.47;30.38;;;9.80;99.90;;;7.72;100.00;101062.03;4999415;28;20536;-86
2021/11/05 08:46:39;;;;;;;80.68;30.85;;;9.80;99.90;;;7.79;100.00;101070.44;5000585;28;20045;-86
2021/11/05 08:49:10;;;;;;;85.75;31.02;;;9.90;99.90;;;7.87;100.00;101069.66;4998507;28;20089;-86
2021/11/05 08:51:40;;;;;;;83.18;32.03;;;9.90;99.90;;;7.90;100.00;101074.75;5000566;28;20410;-86
2021/11/05 08:54:07;;;;;;;89.32;31.63;;;9.90;99.90;;;7.91;100.00;101087.31;4996714;28;20056;-86
2021/11/05 08:56:35;;;;;;;89.10;32.85;;;9.90;99.90;;;7.89;100.00;101086.63;4997850;28;20733;-87
2021/11/05 08:59:04;;;;;;;82.30;30.27;;;9.90;99.90;;;7.81;100.00;101099.06;4998377;28;20042;-87
2021/11/05 09:01:33;;;;;;;79.40;30.95;;;9.90;99.90;;;7.79;100.00;101098.38;5021562;28;20073;-87
2021/11/05 09:04:00;;;;;;;77.50;29.27;;;9.90;99.90;;;7.88;100.00;101099.34;4999047;28;20453;-87
2021/11/05 09:06:28;;;;;;;69.70;28.63;;;9.90;99.90;;;7.90;100.00;101096.44;4999302;28;20462;-86
2021/11/05 09:08:59;;;;;;;73.65;27.35;;;10.00;99.90;;;8.00;100.00;101099.97;4998637;28;20054;-86
2021/11/05 09:11:29;;;;;;;72.40;28.15;;;9.90;99.90;;;8.06;100.00;101107.47;4998725;28;20129;-86
2021/11/05 09:13:56;;;;;;;69.93;28.23;;;10.00;99.90;;;8.16;100.00;101107.41;4998688;28;20049;-86
2021/11/05 09:16:24;;;;;;;79.68;28.70;;;10.00;99.90;;;8.29;100.00;101112.44;4999733;28;20048;-86
2021/11/05 09:18:53;;;;;;;67.22;26.35;;;10.10;99.90;;;8.31;100.00;101116.69;4998096;28;20049;-86
2021/11/05 09:21:20;;;;;;;64.78;26.63;;;10.10;99.90;;;8.32;100.00;101117.53;4998547;28;20545;-86
2021/11/05 09:23:48;;;;;;;70.28;27.42;;;10.10;99.90;;;8.33;100.00;101113.81;4999642;28;20104;-87
2021/11/05 09:26:15;;;;;;;66.13;27.27;;;10.20;99.90;;;8.32;100.00;101117.53;5005161;28;20088;-86
2021/11/05 09:28:46;;;;;;;72.22;28.30;;;10.20;99.90;;;8.36;100.00;101125.22;4997111;28;20573;-86
2021/11/05 09:31:13;;;;;;;65.95;27.90;;;10.20;99.90;;;8.45;100.00;101134.31;4998860;28;20125;-85
2021/11/05 09:33:41;;;;;;;63.28;26.90;;;10.30;99.90;;;8.49;100.00;101130.28;4999977;28;20498;-85
2021/11/05 09:36:09;;;;;;;70.18;28.25;;;10.30;99.90;;;8.66;100.00;101136.69;4998811;28;20050;-85
2021/11/05 09:38:37;;;;;;;59.47;26.65;;;10.30;99.90;;;8.81;100.00;101131.56;4997256;28;20042;-86
2021/11/05 09:41:06;;;;;;;59.95;26.92;;;10.30;99.90;;;8.89;100.00;101133.47;4999533;28;20709;-85
2021/11/05 09:43:34;;;;;;;63.80;28.52;;;10.40;99.90;;;8.86;100.00;101141.97;4998942;28;20045;-85
2021/11/05 09:46:03;;;;;;;61.95;26.25;;;10.50;99.90;;;8.85;100.00;101140.22;4997532;28;20034;-85
2021/11/05 09:48:35;;;;;;;62.45;27.75;;;10.50;99.90;;;8.83;100.00;101158.53;4996197;28;20042;-86
2021/11/05 09:51:03;;;;;;;57.97;26.70;;;10.60;99.90;;;8.87;100.00;101147.22;4996739;28;20592;-85
2021/11/05 09:53:35;;;;;;;60.92;27.38;;;10.60;99.90;;;9.02;100.00;101157.50;4997983;28;20041;-85
2021/11/05 09:56:05;;;;;;;66.43;27.85;;;10.60;99.90;;;8.94;100.00;101161.84;4998008;28;20488;-86
2021/11/05 09:58:33;;;;;;;63.45;28.63;;;10.60;99.90;;;8.92;100.00;101161.16;4996936;28;20046;-88
2021/11/05 10:01:00;;;;;;;68.97;28.85;;;10.70;99.90;;;8.90;100.00;101165.91;4997314;28;20793;-86
2021/11/05 10:03:28;;;;;;;62.17;28.95;;;10.70;99.90;;;8.90;100.00;101171.31;4998434;28;20545;-86
2021/11/05 10:05:56;;;;;;;59.58;28.70;;;10.70;99.90;;;8.95;100.00;101179.84;5000404;28;20046;-85
2021/11/05 10:08:28;;;;;;;66.57;29.30;;;10.70;99.90;;;9.13;100.00;101176.25;4997505;28;20073;-86
2021/11/05 10:10:58;;;;;;;57.78;27.60;;;10.80;99.90;;;9.23;100.00;101181.56;4999572;28;20053;-87
2021/11/05 10:13:25;;;;;;;58.40;28.67;;;10.80;99.90;;;9.30;100.00;101188.91;5025031;28;20050;-87
2021/11/05 10:15:56;;;;;;;59.58;29.15;;;10.80;99.90;;;9.33;100.00;101172.31;4998673;28;20046;-95
2021/11/05 10:18:30;;;;;;;63.90;29.20;;;11.00;99.90;;;9.46;100.00;101176.44;5000202;28;20042;-91
2021/11/05 10:21:11;;;;;;;59.40;28.42;;;11.00;99.90;;;9.62;100.00;101182.00;4998077;28;20050;-90
2021/11/05 10:23:40;;;;;;;54.08;26.70;;;11.00;99.90;;;9.78;100.00;101176.59;5020482;28;20141;-91
2021/11/05 10:26:20;;;;;;;52.80;26.30;;;11.10;99.90;;;9.86;100.00;101183.09;4996298;28;20093;-91
2021/11/05 10:28:47;;;;;;;62.55;27.17;;;11.10;99.90;;;9.95;100.00;101182.13;5028343;28;20077;-90